createdAt,value
2019-02-20T00:01:37.957Z,7.46
2019-02-20T00:04:08.953Z,7.42
2019-02-20T00:06:39.938Z,7.43
2019-02-20T00:09:10.845Z,7.44
2019-02-20T00:11:41.856Z,7.42
2019-02-20T00:14:12.750Z,7.47
2019-02-20T00:16:43.785Z,7.41
2019-02-20T00:19:14.687Z,7.41
2019-02-20T00:21:45.610Z,7.38
2019-02-20T00:24:16.500Z,7.42
2019-02-20T00:26:47.495Z,7.39
2019-02-20T00:29:18.389Z,7.36
2019-02-20T00:31:49.337Z,7.32
2019-02-20T00:34:20.198Z,7.32
2019-02-20T00:36:51.156Z,7.34
2019-02-20T00:39:22.048Z,7.35
2019-02-20T00:41:52.981Z,7.36
2019-02-20T00:44:41.722Z,7.36
2019-02-20T00:47:30.841Z,7.35
2019-02-20T00:50:01.808Z,7.36
2019-02-20T00:52:34.413Z,7.29
2019-02-20T00:55:08.619Z,7.28
2019-02-20T00:57:39.566Z,7.24
2019-02-20T01:00:12.631Z,7.27
2019-02-20T01:02:43.607Z,7.27
2019-02-20T01:05:15.354Z,7.23
2019-02-20T01:07:46.266Z,7.22
2019-02-20T01:10:17.159Z,7.21
2019-02-20T01:12:48.735Z,7.23
2019-02-20T01:15:19.652Z,7.25
2019-02-20T01:17:50.948Z,7.23
2019-02-20T01:20:21.906Z,7.20
2019-02-20T01:22:59.640Z,7.19
2019-02-20T01:25:25.408Z,7.23
2019-02-20T01:27:56.436Z,7.23
2019-02-20T01:30:27.330Z,7.23
2019-02-20T01:32:58.629Z,7.20
2019-02-20T01:35:29.521Z,7.22
2019-02-20T01:38:00.448Z,7.19
2019-02-20T01:40:31.350Z,7.17
2019-02-20T01:43:02.277Z,7.21
2019-02-20T01:45:33.172Z,7.19
2019-02-20T01:48:04.138Z,7.21
2019-02-20T01:50:35.032Z,7.22
2019-02-20T01:53:10.297Z,7.21
2019-02-20T01:55:38.541Z,7.20
2019-02-20T01:58:09.473Z,7.21
2019-02-20T02:00:40.432Z,7.18
2019-02-20T02:03:11.363Z,7.24
2019-02-20T02:05:43.137Z,7.24
2019-02-20T02:08:14.066Z,7.22
2019-02-20T02:10:44.955Z,7.22
2019-02-20T02:13:15.897Z,7.16
2019-02-20T02:15:46.776Z,7.14
2019-02-20T02:18:17.709Z,7.09
2019-02-20T02:20:48.609Z,7.12
2019-02-20T02:23:20.166Z,7.16
2019-02-20T02:25:51.100Z,7.16
2019-02-20T02:28:22.014Z,7.15
2019-02-20T02:30:52.977Z,7.13
2019-02-20T02:33:24.235Z,7.12
2019-02-20T02:35:55.128Z,7.13
2019-02-20T02:38:26.044Z,7.07
2019-02-20T02:40:56.930Z,7.11
2019-02-20T02:43:27.846Z,7.06
2019-02-20T02:45:58.750Z,7.12
2019-02-20T02:48:29.786Z,7.14
2019-02-20T02:51:00.687Z,7.11
2019-02-20T02:53:31.607Z,7.16
2019-02-20T02:56:02.496Z,7.13
2019-02-20T02:58:33.413Z,7.11
2019-02-20T03:01:04.378Z,7.15
2019-02-20T03:03:35.318Z,7.14
2019-02-20T03:06:07.190Z,7.09
2019-02-20T03:08:38.117Z,7.05
2019-02-20T03:11:09.002Z,7.01
2019-02-20T03:13:39.952Z,6.98
2019-02-20T03:16:10.833Z,6.99
2019-02-20T03:18:41.762Z,6.99
2019-02-20T03:21:12.652Z,6.95
2019-02-20T03:23:43.579Z,6.97
2019-02-20T03:26:14.477Z,6.97
2019-02-20T03:28:45.392Z,6.89
2019-02-20T03:31:16.308Z,6.94
2019-02-20T03:33:47.238Z,6.89
2019-02-20T03:36:18.127Z,6.90
2019-02-20T03:38:49.045Z,6.90
2019-02-20T03:41:20.717Z,6.88
2019-02-20T03:43:51.598Z,6.88
2019-02-20T03:46:22.481Z,6.83
2019-02-20T03:48:53.423Z,6.89
2019-02-20T03:51:24.321Z,6.87
2019-02-20T03:53:55.372Z,6.92
2019-02-20T03:56:26.563Z,6.92
2019-02-20T03:58:57.490Z,6.92
2019-02-20T04:01:28.381Z,6.96
2019-02-20T04:03:59.324Z,6.86
2019-02-20T04:06:30.206Z,6.93
2019-02-20T04:09:01.139Z,6.89
2019-02-20T04:11:32.017Z,6.85
2019-02-20T04:14:02.934Z,6.86
2019-02-20T04:16:33.899Z,6.90
2019-02-20T04:19:04.846Z,6.93
2019-02-20T04:21:35.745Z,6.93
2019-02-20T04:24:06.675Z,6.94
2019-02-20T04:26:38.766Z,6.89
2019-02-20T04:29:09.653Z,6.91
2019-02-20T04:31:40.553Z,6.89
2019-02-20T04:34:11.515Z,6.94
2019-02-20T04:36:42.426Z,6.99
2019-02-20T04:39:13.408Z,6.99
2019-02-20T04:41:44.306Z,6.89
2019-02-20T04:44:15.238Z,6.92
2019-02-20T04:46:46.143Z,6.86
2019-02-20T04:49:17.072Z,6.79
2019-02-20T04:51:47.961Z,6.67
2019-02-20T04:54:18.875Z,6.67
2019-02-20T04:56:49.776Z,6.70
2019-02-20T04:59:20.711Z,6.66
2019-02-20T05:01:51.604Z,6.61
2019-02-20T05:04:22.697Z,6.60
2019-02-20T05:06:54.395Z,6.60
2019-02-20T05:09:25.316Z,6.57
2019-02-20T05:11:56.221Z,6.63
2019-02-20T05:14:27.154Z,6.62
2019-02-20T05:16:58.032Z,6.65
2019-02-20T05:19:29.053Z,6.70
2019-02-20T05:22:00.629Z,6.72
2019-02-20T05:24:31.586Z,6.70
2019-02-20T05:27:02.466Z,6.75
2019-02-20T05:29:33.378Z,6.72
2019-02-20T05:32:04.265Z,6.76
2019-02-20T05:34:35.246Z,6.81
2019-02-20T05:37:06.127Z,6.77
2019-02-20T05:39:37.075Z,6.75
2019-02-20T05:42:07.969Z,6.71
2019-02-20T05:44:38.891Z,6.78
2019-02-20T05:47:09.790Z,6.73
2019-02-20T05:49:40.730Z,6.78
2019-02-20T05:52:11.624Z,6.77
2019-02-20T05:54:42.551Z,6.79
2019-02-20T05:57:13.442Z,6.77
2019-02-20T05:59:44.372Z,6.82
2019-02-20T06:02:15.273Z,6.75
2019-02-20T06:04:46.304Z,6.77
2019-02-20T06:07:17.192Z,6.83
2019-02-20T06:09:48.107Z,6.82
2019-02-20T06:12:18.997Z,6.78
2019-02-20T06:14:49.917Z,6.80
2019-02-20T06:17:20.804Z,6.76
2019-02-20T06:19:51.753Z,6.82
2019-02-20T06:22:22.650Z,6.87
2019-02-20T06:24:53.591Z,6.87
2019-02-20T06:27:24.480Z,6.83
2019-02-20T06:29:55.409Z,6.84
2019-02-20T06:32:26.307Z,6.87
2019-02-20T06:34:57.262Z,6.87
2019-02-20T06:37:28.155Z,6.83
2019-02-20T06:39:59.090Z,6.85
2019-02-20T06:42:29.980Z,6.91
2019-02-20T06:45:00.897Z,6.96
2019-02-20T06:47:31.800Z,6.90
2019-02-20T06:50:02.835Z,6.92
2019-02-20T06:52:33.729Z,6.91
2019-02-20T06:55:06.576Z,6.98
2019-02-20T06:57:37.550Z,6.96
2019-02-20T07:00:11.336Z,7.01
2019-02-20T07:02:42.229Z,7.03
2019-02-20T07:05:30.394Z,7.04
2019-02-20T07:08:25.876Z,7.08
2019-02-20T07:11:03.002Z,7.14
2019-02-20T07:13:36.825Z,7.14
2019-02-20T07:16:28.522Z,7.14
2019-02-20T07:19:04.884Z,7.12
2019-02-20T07:22:12.299Z,7.14
2019-02-20T07:24:52.085Z,7.16
2019-02-20T07:27:34.442Z,7.20
2019-02-20T07:30:11.306Z,7.22
2019-02-20T07:32:42.213Z,7.18
2019-02-20T07:35:13.185Z,7.20
2019-02-20T07:37:44.162Z,7.23
2019-02-20T07:40:15.053Z,7.25
2019-02-20T07:42:45.982Z,7.26
2019-02-20T07:45:16.877Z,7.28
2019-02-20T07:47:47.799Z,7.32
2019-02-20T07:50:18.702Z,7.41
2019-02-20T07:52:49.636Z,7.42
2019-02-20T07:55:20.553Z,7.52
2019-02-20T07:57:51.464Z,7.56
2019-02-20T08:00:22.350Z,7.61
2019-02-20T08:02:53.274Z,7.56
2019-02-20T08:05:24.231Z,7.49
2019-02-20T08:07:55.190Z,7.47
2019-02-20T08:10:26.130Z,7.48
2019-02-20T08:12:57.071Z,7.41
2019-02-20T08:15:27.957Z,7.45
2019-02-20T08:17:58.891Z,7.52
2019-02-20T08:20:29.784Z,7.61
2019-02-20T08:23:00.879Z,7.72
2019-02-20T08:25:31.767Z,7.89
2019-02-20T08:28:02.688Z,8.13
2019-02-20T08:30:33.597Z,8.17
2019-02-20T08:33:04.527Z,8.41
2019-02-20T08:35:35.427Z,8.68
2019-02-20T08:38:06.394Z,8.83
2019-02-20T08:40:37.273Z,8.98
2019-02-20T08:43:08.232Z,9.17
2019-02-20T08:45:39.139Z,9.33
2019-02-20T08:48:10.025Z,9.39
2019-02-20T08:50:40.908Z,9.43
2019-02-20T08:53:11.867Z,9.38
2019-02-20T08:55:42.766Z,9.41
2019-02-20T08:58:13.678Z,9.40
2019-02-20T09:00:44.574Z,9.29
2019-02-20T09:03:15.485Z,9.33
2019-02-20T09:05:46.375Z,9.28
2019-02-20T09:08:17.414Z,9.24
2019-02-20T09:10:48.305Z,9.27
2019-02-20T09:13:19.220Z,9.24
2019-02-20T09:15:50.119Z,9.25
2019-02-20T09:18:21.080Z,9.30
2019-02-20T09:20:51.986Z,9.25
2019-02-20T09:23:22.921Z,9.17
2019-02-20T09:25:53.825Z,9.10
2019-02-20T09:28:24.742Z,9.04
2019-02-20T09:30:55.644Z,9.04
2019-02-20T09:33:26.569Z,9.05
2019-02-20T09:35:57.444Z,9.10
2019-02-20T09:38:28.385Z,9.07
2019-02-20T09:40:59.644Z,9.15
2019-02-20T09:43:30.581Z,9.04
2019-02-20T09:46:01.478Z,9.06
2019-02-20T09:48:32.394Z,9.03
2019-02-20T09:51:03.282Z,9.01
2019-02-20T09:53:34.249Z,9.04
2019-02-20T09:56:05.150Z,9.01
2019-02-20T09:58:36.065Z,8.99
2019-02-20T10:01:06.959Z,8.94
2019-02-20T10:03:37.868Z,8.95
2019-02-20T10:06:08.758Z,8.95
2019-02-20T10:08:39.835Z,8.90
2019-02-20T10:11:11.934Z,8.88
2019-02-20T10:13:42.862Z,8.87
2019-02-20T10:16:13.754Z,8.85
2019-02-20T10:18:44.667Z,8.79
2019-02-20T10:21:17.199Z,8.80
2019-02-20T10:23:48.304Z,8.85
2019-02-20T10:26:19.206Z,8.96
2019-02-20T10:28:50.140Z,8.98
2019-02-20T10:31:21.027Z,9.06
2019-02-20T10:33:52.033Z,8.96
2019-02-20T10:36:22.935Z,9.02
2019-02-20T10:38:54.000Z,9.03
2019-02-20T10:41:25.216Z,8.94
2019-02-20T10:43:56.142Z,8.97
2019-02-20T10:46:27.038Z,8.94
2019-02-20T10:48:57.971Z,8.99
2019-02-20T10:51:28.870Z,9.05
2019-02-20T10:53:59.835Z,9.12
2019-02-20T10:56:30.796Z,9.12
2019-02-20T10:59:01.718Z,9.12
2019-02-20T11:01:32.690Z,9.22
2019-02-20T11:04:03.625Z,9.28
2019-02-20T11:06:34.508Z,9.30
2019-02-20T11:09:06.576Z,9.33
2019-02-20T11:11:37.479Z,9.29
2019-02-20T11:14:08.388Z,9.16
2019-02-20T11:16:39.286Z,9.13
2019-02-20T11:19:10.217Z,8.87
2019-02-20T11:21:41.207Z,8.94
2019-02-20T11:24:12.169Z,8.92
2019-02-20T11:26:52.397Z,8.98
2019-02-20T11:29:15.694Z,8.97
2019-02-20T11:31:46.580Z,8.88
2019-02-20T11:34:17.507Z,8.77
2019-02-20T11:36:49.413Z,8.75
2019-02-20T11:39:20.440Z,8.76
2019-02-20T11:41:51.340Z,8.68
2019-02-20T11:44:22.313Z,8.71
2019-02-20T11:46:53.231Z,8.70
2019-02-20T11:49:24.133Z,8.77
2019-02-20T11:51:55.098Z,8.76
2019-02-20T11:54:26.037Z,8.81
2019-02-20T11:56:56.928Z,8.84
2019-02-20T11:59:27.927Z,8.68
2019-02-20T12:01:58.909Z,8.79
2019-02-20T12:04:29.836Z,8.68
2019-02-20T12:07:00.728Z,8.71
2019-02-20T12:09:31.752Z,8.71
2019-02-20T12:12:02.644Z,8.69
2019-02-20T12:14:33.599Z,8.74
2019-02-20T12:17:04.507Z,8.62
2019-02-20T12:19:35.419Z,8.57
2019-02-20T12:22:06.387Z,8.52
2019-02-20T12:24:37.339Z,8.53
2019-02-20T12:27:08.231Z,8.53
2019-02-20T12:29:39.141Z,8.58
2019-02-20T12:32:10.043Z,8.48
2019-02-20T12:34:40.970Z,8.51
2019-02-20T12:37:11.867Z,8.56
2019-02-20T12:39:42.801Z,8.59
2019-02-20T12:42:13.693Z,8.53
2019-02-20T12:44:44.612Z,8.45
2019-02-20T12:47:15.512Z,8.47
2019-02-20T12:49:46.522Z,8.47
2019-02-20T12:52:17.402Z,8.47
2019-02-20T12:54:48.442Z,8.52
2019-02-20T12:57:19.330Z,8.45
2019-02-20T12:59:50.260Z,8.43
2019-02-20T13:02:21.154Z,8.37
2019-02-20T13:04:52.153Z,8.35
2019-02-20T13:07:23.057Z,8.36
2019-02-20T13:09:54.071Z,8.28
2019-02-20T13:12:25.757Z,8.28
2019-02-20T13:14:56.677Z,8.27
2019-02-20T13:17:27.584Z,8.31
2019-02-20T13:19:58.506Z,8.35
2019-02-20T13:22:29.408Z,8.30
2019-02-20T13:25:00.360Z,8.25
2019-02-20T13:27:31.267Z,8.30
2019-02-20T13:30:02.209Z,8.26
2019-02-20T13:32:33.118Z,8.34
2019-02-20T13:35:04.548Z,8.27
2019-02-20T13:37:35.450Z,8.23
2019-02-20T13:40:09.224Z,8.19
2019-02-20T13:42:40.127Z,8.19
2019-02-20T13:45:11.072Z,8.21
2019-02-20T13:47:41.963Z,8.22
2019-02-20T13:50:13.081Z,8.15
2019-02-20T13:52:51.970Z,8.13
2019-02-20T13:55:17.105Z,8.09
2019-02-20T13:57:47.996Z,8.05
2019-02-20T14:00:18.918Z,8.03
2019-02-20T14:02:49.826Z,8.06
2019-02-20T14:05:20.762Z,8.10
2019-02-20T14:07:51.670Z,8.13
2019-02-20T14:10:22.636Z,8.09
2019-02-20T14:12:53.545Z,8.10
2019-02-20T14:15:24.583Z,8.05
2019-02-20T14:17:55.497Z,8.12
2019-02-20T14:20:26.709Z,8.14
2019-02-20T14:22:57.602Z,8.15
2019-02-20T14:25:28.555Z,8.09
2019-02-20T14:27:59.450Z,8.02
2019-02-20T14:30:30.436Z,8.05
2019-02-20T14:33:01.337Z,7.90
2019-02-20T14:35:32.290Z,7.87
2019-02-20T14:38:03.209Z,7.78
2019-02-20T14:40:34.265Z,7.77
2019-02-20T14:43:05.166Z,7.77
2019-02-20T14:45:36.095Z,7.80
2019-02-20T14:48:07.274Z,7.85
2019-02-20T14:50:38.204Z,7.78
2019-02-20T14:53:09.111Z,7.82
2019-02-20T14:55:40.179Z,7.70
2019-02-20T14:58:11.167Z,7.71
2019-02-20T15:00:42.535Z,7.74
2019-02-20T15:03:13.441Z,7.81
2019-02-20T15:05:44.379Z,7.80
2019-02-20T15:08:15.287Z,7.73
2019-02-20T15:10:46.471Z,7.67
2019-02-20T15:13:17.407Z,7.62
2019-02-20T15:15:48.335Z,7.75
2019-02-20T15:18:19.232Z,7.74
2019-02-20T15:20:50.146Z,7.72
2019-02-20T15:23:21.047Z,7.71
2019-02-20T15:25:52.018Z,7.71
2019-02-20T15:28:23.174Z,7.62
2019-02-20T15:30:54.124Z,7.50
2019-02-20T15:33:25.024Z,7.51
2019-02-20T15:35:55.954Z,7.55
2019-02-20T15:38:26.844Z,7.46
2019-02-20T15:40:57.795Z,7.50
2019-02-20T15:43:28.713Z,7.50
2019-02-20T15:45:59.642Z,7.52
2019-02-20T15:48:30.554Z,7.49
2019-02-20T15:51:01.481Z,7.44
2019-02-20T15:53:32.387Z,7.41
2019-02-20T15:56:03.613Z,7.44
2019-02-20T15:58:34.597Z,7.41
2019-02-20T16:01:08.094Z,7.38
2019-02-20T16:03:39.071Z,7.34
2019-02-20T16:06:10.003Z,7.27
2019-02-20T16:08:41.183Z,7.28
2019-02-20T16:11:12.136Z,7.30
2019-02-20T16:13:43.040Z,7.26
2019-02-20T16:16:14.321Z,7.22
2019-02-20T16:18:45.368Z,7.20
2019-02-20T16:21:16.374Z,7.20
2019-02-20T16:23:47.469Z,7.19
2019-02-20T16:26:18.426Z,7.11
2019-02-20T16:28:49.334Z,7.09
2019-02-20T16:31:20.268Z,7.12
2019-02-20T16:33:51.232Z,7.06
2019-02-20T16:36:23.264Z,7.08
2019-02-20T16:38:54.188Z,7.14
2019-02-20T16:41:25.177Z,7.13
2019-02-20T16:43:56.103Z,7.16
2019-02-20T16:46:36.440Z,7.17
2019-02-20T16:49:10.840Z,7.15
2019-02-20T16:51:41.787Z,7.14
2019-02-20T16:54:12.702Z,7.18
2019-02-20T16:56:43.665Z,7.20
2019-02-20T16:59:14.571Z,7.21
2019-02-20T17:01:45.884Z,7.24
2019-02-20T17:04:16.782Z,7.27
2019-02-20T17:06:47.715Z,7.27
2019-02-20T17:09:18.628Z,7.27
2019-02-20T17:11:49.645Z,7.29
2019-02-20T17:14:20.649Z,7.27
2019-02-20T17:16:51.585Z,7.26
2019-02-20T17:19:22.489Z,7.30
2019-02-20T17:21:53.415Z,7.27
2019-02-20T17:24:24.314Z,7.25
2019-02-20T17:26:55.356Z,7.27
2019-02-20T17:29:26.448Z,7.26
2019-02-20T17:31:57.371Z,7.28
2019-02-20T17:34:28.264Z,7.25
2019-02-20T17:36:59.201Z,7.23
2019-02-20T17:39:30.102Z,7.18
2019-02-20T17:42:01.346Z,7.13
2019-02-20T17:44:32.245Z,7.12
2019-02-20T17:47:03.177Z,7.07
2019-02-20T17:49:34.183Z,7.09
2019-02-20T17:52:05.106Z,7.07
2019-02-20T17:54:36.003Z,7.04
2019-02-20T17:57:07.054Z,6.99
2019-02-20T17:59:37.955Z,6.97
2019-02-20T18:02:08.971Z,6.97
2019-02-20T18:04:39.877Z,6.97
2019-02-20T18:07:10.807Z,6.93
2019-02-20T18:09:41.717Z,6.94
2019-02-20T18:12:12.713Z,6.90
2019-02-20T18:14:43.631Z,6.86
2019-02-20T18:17:14.577Z,6.85
2019-02-20T18:19:45.491Z,6.83
2019-02-20T18:22:16.534Z,6.80
2019-02-20T18:24:47.565Z,6.73
2019-02-20T18:27:18.609Z,6.69
2019-02-20T18:29:49.522Z,6.65
2019-02-20T18:32:20.464Z,6.59
2019-02-20T18:34:51.366Z,6.56
2019-02-20T18:37:22.503Z,6.52
2019-02-20T18:39:53.455Z,6.45
2019-02-20T18:42:24.449Z,6.36
2019-02-20T18:44:55.815Z,6.29
2019-02-20T18:47:26.861Z,6.26
2019-02-20T18:49:57.755Z,6.20
2019-02-20T18:52:28.688Z,6.20
2019-02-20T18:55:05.854Z,6.17
2019-02-20T18:57:32.265Z,6.18
2019-02-20T19:00:03.159Z,6.19
2019-02-20T19:02:34.099Z,6.19
2019-02-20T19:05:06.762Z,6.20
2019-02-20T19:07:37.762Z,6.22
2019-02-20T19:10:11.611Z,6.24
2019-02-20T19:12:51.304Z,6.27
2019-02-20T19:15:25.180Z,6.27
2019-02-20T19:18:08.024Z,6.30
2019-02-20T19:21:03.248Z,6.34
2019-02-20T19:23:48.482Z,6.34
2019-02-20T19:26:22.276Z,6.37
2019-02-20T19:29:27.836Z,6.41
2019-02-20T19:32:21.402Z,6.48
2019-02-20T19:35:01.178Z,6.50
2019-02-20T19:37:43.741Z,6.52
2019-02-20T19:40:17.622Z,6.56
2019-02-20T19:42:54.366Z,6.54
2019-02-20T19:45:30.929Z,6.59
2019-02-20T19:48:13.734Z,6.63
2019-02-20T19:50:56.126Z,6.68
2019-02-20T19:53:38.725Z,6.72
2019-02-20T19:56:27.461Z,6.78
2019-02-20T19:59:16.486Z,6.79
2019-02-20T20:01:52.990Z,6.80
2019-02-20T20:04:29.560Z,6.82
2019-02-20T20:07:15.393Z,6.87
2019-02-20T20:10:13.379Z,6.91
2019-02-20T20:13:02.236Z,6.92
2019-02-20T20:15:53.882Z,6.98
2019-02-20T20:18:36.943Z,6.96
2019-02-20T20:21:16.665Z,6.96
2019-02-20T20:23:53.173Z,6.99
2019-02-20T20:26:35.785Z,7.04
2019-02-20T20:29:32.109Z,7.05
2019-02-20T20:32:08.839Z,7.08
2019-02-20T20:35:00.885Z,7.08
2019-02-20T20:37:37.730Z,7.10
2019-02-20T20:40:40.427Z,7.12
2019-02-20T20:43:14.258Z,7.11
2019-02-20T20:45:48.097Z,7.12
2019-02-20T20:48:36.840Z,7.11
2019-02-20T20:51:13.522Z,7.10
2019-02-20T20:54:22.630Z,7.07
2019-02-20T20:57:08.220Z,7.04
2019-02-20T20:59:44.813Z,6.92
2019-02-20T21:02:21.617Z,6.89
2019-02-20T21:05:01.315Z,6.81
2019-02-20T21:07:46.799Z,6.76
2019-02-20T21:10:40.085Z,6.71
2019-02-20T21:13:19.845Z,6.61
2019-02-20T21:16:16.210Z,6.57
2019-02-20T21:19:21.634Z,6.54
2019-02-20T21:22:26.385Z,6.50
2019-02-20T21:25:33.612Z,6.45
2019-02-20T21:28:22.401Z,6.38
2019-02-20T21:31:05.026Z,6.31
2019-02-20T21:34:12.132Z,6.28
2019-02-20T21:36:54.582Z,6.26
2019-02-20T21:39:37.396Z,6.21
2019-02-20T21:42:35.296Z,6.19
2019-02-20T21:45:18.027Z,6.15
2019-02-20T21:48:08.985Z,6.12
2019-02-20T21:50:45.807Z,6.08
2019-02-20T21:53:19.651Z,6.04
2019-02-20T21:56:14.972Z,6.03
2019-02-20T21:58:58.074Z,6.00
2019-02-20T22:01:44.148Z,5.97
2019-02-20T22:04:40.561Z,5.96
2019-02-20T22:07:29.275Z,5.94
2019-02-20T22:10:05.819Z,5.88
2019-02-20T22:13:02.387Z,5.86
2019-02-20T22:15:36.450Z,5.86
2019-02-20T22:18:32.499Z,5.84
2019-02-20T22:21:15.189Z,5.84
2019-02-20T22:23:57.883Z,5.87
2019-02-20T22:26:46.054Z,5.90
2019-02-20T22:29:37.396Z,5.96
2019-02-20T22:32:11.286Z,6.03
2019-02-20T22:34:50.863Z,6.09
2019-02-20T22:37:30.748Z,6.13
2019-02-20T22:40:07.529Z,6.17
2019-02-20T22:43:14.861Z,6.22
2019-02-20T22:46:00.581Z,6.28
2019-02-20T22:48:46.179Z,6.30
2019-02-20T22:51:42.217Z,6.34
2019-02-20T22:54:24.574Z,6.36
2019-02-20T22:57:26.631Z,6.39
2019-02-20T23:00:35.515Z,6.43
2019-02-20T23:03:12.124Z,6.46
2019-02-20T23:06:14.798Z,6.45
2019-02-20T23:08:48.631Z,6.46
2019-02-20T23:11:34.685Z,6.45
2019-02-20T23:14:08.514Z,6.45
2019-02-20T23:16:39.486Z,6.46
2019-02-20T23:19:10.390Z,6.47
2019-02-20T23:21:41.364Z,6.47
2019-02-20T23:24:12.265Z,6.47
2019-02-20T23:26:43.271Z,6.47
2019-02-20T23:29:14.193Z,6.46
2019-02-20T23:31:45.125Z,6.43
2019-02-20T23:34:16.539Z,6.43
2019-02-20T23:36:47.515Z,6.39
2019-02-20T23:39:18.415Z,6.38
2019-02-20T23:41:49.679Z,6.37
2019-02-20T23:44:20.586Z,6.34
2019-02-20T23:46:51.528Z,6.33
2019-02-20T23:49:22.432Z,6.30
2019-02-20T23:51:53.395Z,6.28
2019-02-20T23:54:24.299Z,6.27
2019-02-20T23:56:55.241Z,6.25
2019-02-20T23:59:26.237Z,6.24
